sensor_id;sensor_type;location;lat;lon;timestamp;pressure;altitude;pressure_sealevel;temperature;humidity
79617;BME280;69097;52.132;5.422;2023-07-29T00:00:44;100881.97;;;17.75;85.72
79617;BME280;69097;52.132;5.422;2023-07-29T00:03:11;100874.38;;;17.72;85.49
79617;BME280;69097;52.132;5.422;2023-07-29T00:05:38;100873.31;;;17.69;85.46
79617;BME280;69097;52.132;5.422;2023-07-29T00:08:05;100870.66;;;17.66;85.11
79617;BME280;69097;52.132;5.422;2023-07-29T00:10:36;100867.50;;;17.64;85.38
79617;BME280;69097;52.132;5.422;2023-07-29T00:13:04;100865.63;;;17.61;85.21
79617;BME280;69097;52.132;5.422;2023-07-29T00:15:31;100855.25;;;17.58;85.30
79617;BME280;69097;52.132;5.422;2023-07-29T00:17:58;100852.09;;;17.56;85.01
79617;BME280;69097;52.132;5.422;2023-07-29T00:20:25;100848.66;;;17.52;85.36
79617;BME280;69097;52.132;5.422;2023-07-29T00:22:51;100848.81;;;17.48;85.04
79617;BME280;69097;52.132;5.422;2023-07-29T00:25:21;100843.28;;;17.45;85.00
79617;BME280;69097;52.132;5.422;2023-07-29T00:27:48;100835.44;;;17.40;85.56
79617;BME280;69097;52.132;5.422;2023-07-29T00:30:14;100835.81;;;17.33;85.67
79617;BME280;69097;52.132;5.422;2023-07-29T00:32:41;100830.63;;;17.31;85.72
79617;BME280;69097;52.132;5.422;2023-07-29T00:35:08;100825.72;;;17.32;85.72
79617;BME280;69097;52.132;5.422;2023-07-29T00:37:34;100818.81;;;17.33;85.44
79617;BME280;69097;52.132;5.422;2023-07-29T00:40:01;100811.25;;;17.30;85.73
79617;BME280;69097;52.132;5.422;2023-07-29T00:42:27;100822.28;;;17.28;85.44
79617;BME280;69097;52.132;5.422;2023-07-29T00:44:54;100840.13;;;17.19;85.99
79617;BME280;69097;52.132;5.422;2023-07-29T00:47:21;100836.38;;;17.13;86.38
79617;BME280;69097;52.132;5.422;2023-07-29T00:49:48;100845.00;;;17.18;86.50
79617;BME280;69097;52.132;5.422;2023-07-29T00:52:16;100842.97;;;17.19;86.51
79617;BME280;69097;52.132;5.422;2023-07-29T00:54:43;100839.97;;;17.23;86.42
79617;BME280;69097;52.132;5.422;2023-07-29T00:57:11;100827.19;;;17.27;86.32
79617;BME280;69097;52.132;5.422;2023-07-29T00:59:40;100816.91;;;17.30;86.33
79617;BME280;69097;52.132;5.422;2023-07-29T01:02:07;100821.03;;;17.29;86.90
79617;BME280;69097;52.132;5.422;2023-07-29T01:04:35;100815.53;;;17.25;86.55
79617;BME280;69097;52.132;5.422;2023-07-29T01:10:10;100815.38;;;17.19;85.91
79617;BME280;69097;52.132;5.422;2023-07-29T01:15:25;100825.66;;;17.17;85.68
79617;BME280;69097;52.132;5.422;2023-07-29T01:17:55;100825.50;;;17.11;86.07
79617;BME280;69097;52.132;5.422;2023-07-29T01:20:26;100823.63;;;17.08;86.37
79617;BME280;69097;52.132;5.422;2023-07-29T01:22:53;100821.09;;;17.10;86.31
79617;BME280;69097;52.132;5.422;2023-07-29T01:25:20;100823.63;;;17.08;86.31
79617;BME280;69097;52.132;5.422;2023-07-29T01:27:48;100820.81;;;17.08;86.74
79617;BME280;69097;52.132;5.422;2023-07-29T01:30:19;100830.88;;;17.09;86.82
79617;BME280;69097;52.132;5.422;2023-07-29T01:36:12;100822.34;;;17.09;86.98
79617;BME280;69097;52.132;5.422;2023-07-29T01:38:38;100818.94;;;17.05;86.69
79617;BME280;69097;52.132;5.422;2023-07-29T01:41:07;100821.44;;;17.03;86.57
79617;BME280;69097;52.132;5.422;2023-07-29T01:43:34;100821.13;;;17.01;86.82
79617;BME280;69097;52.132;5.422;2023-07-29T01:46:05;100820.81;;;16.99;86.96
79617;BME280;69097;52.132;5.422;2023-07-29T01:48:32;100810.28;;;17.00;86.77
79617;BME280;69097;52.132;5.422;2023-07-29T01:50:58;100812.63;;;17.01;87.05
79617;BME280;69097;52.132;5.422;2023-07-29T01:53:25;100808.53;;;17.02;87.20
79617;BME280;69097;52.132;5.422;2023-07-29T01:55:51;100809.00;;;17.01;87.41
79617;BME280;69097;52.132;5.422;2023-07-29T01:58:18;100813.44;;;17.02;87.62
79617;BME280;69097;52.132;5.422;2023-07-29T02:00:45;100807.59;;;17.05;87.74
79617;BME280;69097;52.132;5.422;2023-07-29T02:03:11;100795.28;;;17.08;88.08
79617;BME280;69097;52.132;5.422;2023-07-29T02:05:37;100802.50;;;17.09;88.01
79617;BME280;69097;52.132;5.422;2023-07-29T02:08:04;100800.00;;;17.11;88.08
79617;BME280;69097;52.132;5.422;2023-07-29T02:10:30;100805.97;;;17.13;87.74
79617;BME280;69097;52.132;5.422;2023-07-29T02:12:57;100806.28;;;17.15;88.01
79617;BME280;69097;52.132;5.422;2023-07-29T02:15:23;100793.66;;;17.16;88.04
79617;BME280;69097;52.132;5.422;2023-07-29T02:17:50;100793.66;;;17.16;88.13
79617;BME280;69097;52.132;5.422;2023-07-29T02:20:18;100790.84;;;17.16;88.07
79617;BME280;69097;52.132;5.422;2023-07-29T02:22:45;100790.03;;;17.16;87.90
79617;BME280;69097;52.132;5.422;2023-07-29T02:25:12;100789.28;;;17.15;87.86
79617;BME280;69097;52.132;5.422;2023-07-29T02:27:39;100788.97;;;17.13;88.24
79617;BME280;69097;52.132;5.422;2023-07-29T02:30:06;100783.78;;;17.12;88.04
79617;BME280;69097;52.132;5.422;2023-07-29T02:32:35;100787.09;;;17.10;88.01
79617;BME280;69097;52.132;5.422;2023-07-29T02:35:01;100787.09;;;17.10;87.94
79617;BME280;69097;52.132;5.422;2023-07-29T02:37:28;100791.19;;;17.09;88.19
79617;BME280;69097;52.132;5.422;2023-07-29T02:39:54;100791.19;;;17.09;88.61
79617;BME280;69097;52.132;5.422;2023-07-29T02:42:21;100790.69;;;17.11;88.51
79617;BME280;69097;52.132;5.422;2023-07-29T02:44:47;100777.31;;;17.11;88.50
79617;BME280;69097;52.132;5.422;2023-07-29T02:47:14;100781.44;;;17.10;88.51
79617;BME280;69097;52.132;5.422;2023-07-29T02:49:40;100787.09;;;17.10;88.62
79617;BME280;69097;52.132;5.422;2023-07-29T02:52:08;100779.84;;;17.09;88.63
79617;BME280;69097;52.132;5.422;2023-07-29T02:54:34;100777.00;;;17.09;88.73
79617;BME280;69097;52.132;5.422;2023-07-29T02:57:01;100773.88;;;17.07;88.75
79617;BME280;69097;52.132;5.422;2023-07-29T02:59:27;100773.88;;;17.07;88.57
79617;BME280;69097;52.132;5.422;2023-07-29T03:01:56;100779.25;;;17.05;88.86
79617;BME280;69097;52.132;5.422;2023-07-29T03:04:22;100780.50;;;17.04;88.86
79617;BME280;69097;52.132;5.422;2023-07-29T03:06:49;100784.59;;;17.03;88.38
79617;BME280;69097;52.132;5.422;2023-07-29T03:09:16;100777.56;;;16.99;88.51
79617;BME280;69097;52.132;5.422;2023-07-29T03:11:42;100773.28;;;16.94;88.67
79617;BME280;69097;52.132;5.422;2023-07-29T03:14:09;100765.59;;;16.95;88.84
79617;BME280;69097;52.132;5.422;2023-07-29T03:16:35;100758.81;;;16.92;88.75
79617;BME280;69097;52.132;5.422;2023-07-29T03:19:02;100759.59;;;16.93;88.35
79617;BME280;69097;52.132;5.422;2023-07-29T03:21:29;100766.88;;;16.94;88.63
79617;BME280;69097;52.132;5.422;2023-07-29T03:23:55;100759.59;;;16.93;88.59
79617;BME280;69097;52.132;5.422;2023-07-29T03:26:22;100764.47;;;16.92;88.57
79617;BME280;69097;52.132;5.422;2023-07-29T03:28:48;100762.94;;;16.91;88.53
79617;BME280;69097;52.132;5.422;2023-07-29T03:31:15;100770.81;;;16.87;88.50
79617;BME280;69097;52.132;5.422;2023-07-29T03:33:41;100766.09;;;16.84;88.92
79617;BME280;69097;52.132;5.422;2023-07-29T03:36:08;100768.63;;;16.82;88.91
79617;BME280;69097;52.132;5.422;2023-07-29T03:38:35;100767.38;;;16.83;88.88
79617;BME280;69097;52.132;5.422;2023-07-29T03:41:10;100761.22;;;16.85;88.79
79617;BME280;69097;52.132;5.422;2023-07-29T03:43:36;100762.03;;;16.85;88.77
79617;BME280;69097;52.132;5.422;2023-07-29T03:46:03;100760.75;;;16.86;88.91
79617;BME280;69097;52.132;5.422;2023-07-29T03:48:29;100755.06;;;16.86;88.43
79617;BME280;69097;52.132;5.422;2023-07-29T03:50:57;100769.72;;;16.85;88.78
79617;BME280;69097;52.132;5.422;2023-07-29T03:53:23;100774.28;;;16.82;88.84
79617;BME280;69097;52.132;5.422;2023-07-29T03:55:50;100770.22;;;16.83;88.80
79617;BME280;69097;52.132;5.422;2023-07-29T03:58:17;100776.34;;;16.82;88.67
79617;BME280;69097;52.132;5.422;2023-07-29T04:00:43;100776.03;;;16.80;88.72
79617;BME280;69097;52.132;5.422;2023-07-29T04:03:10;100780.59;;;16.77;89.18
79617;BME280;69097;52.132;5.422;2023-07-29T04:05:36;100777.47;;;16.75;88.83
79617;BME280;69097;52.132;5.422;2023-07-29T04:08:03;100764.09;;;16.76;88.90
79617;BME280;69097;52.132;5.422;2023-07-29T04:10:31;100772.59;;;16.76;88.65
79617;BME280;69097;52.132;5.422;2023-07-29T04:12:58;100778.41;;;16.72;88.58
79617;BME280;69097;52.132;5.422;2023-07-29T04:15:24;100785.03;;;16.69;88.27
79617;BME280;69097;52.132;5.422;2023-07-29T04:17:51;100786.31;;;16.68;88.18
79617;BME280;69097;52.132;5.422;2023-07-29T04:20:17;100777.19;;;16.64;87.94
79617;BME280;69097;52.132;5.422;2023-07-29T04:22:44;100768.22;;;16.66;88.00
79617;BME280;69097;52.132;5.422;2023-07-29T04:25:10;100761.78;;;16.65;87.68
79617;BME280;69097;52.132;5.422;2023-07-29T04:27:37;100762.22;;;16.64;87.06
79617;BME280;69097;52.132;5.422;2023-07-29T04:30:04;100763.03;;;16.64;86.78
79617;BME280;69097;52.132;5.422;2023-07-29T04:32:30;100767.44;;;16.65;86.99
79617;BME280;69097;52.132;5.422;2023-07-29T04:34:57;100770.94;;;16.60;86.59
79617;BME280;69097;52.132;5.422;2023-07-29T04:37:24;100769.34;;;16.59;86.54
79617;BME280;69097;52.132;5.422;2023-07-29T04:39:50;100775.00;;;16.59;86.33
79617;BME280;69097;52.132;5.422;2023-07-29T04:42:16;100774.22;;;16.59;86.50
79617;BME280;69097;52.132;5.422;2023-07-29T04:44:43;100768.25;;;16.57;85.91
79617;BME280;69097;52.132;5.422;2023-07-29T04:47:09;100779.59;;;16.57;86.14
79617;BME280;69097;52.132;5.422;2023-07-29T04:49:36;100776.28;;;16.58;86.20
79617;BME280;69097;52.132;5.422;2023-07-29T04:52:03;100779.59;;;16.57;86.00
79617;BME280;69097;52.132;5.422;2023-07-29T04:54:29;100781.63;;;16.56;85.91
79617;BME280;69097;52.132;5.422;2023-07-29T04:56:56;100778.47;;;16.54;85.86
79617;BME280;69097;52.132;5.422;2023-07-29T04:59:22;100782.88;;;16.55;86.12
79617;BME280;69097;52.132;5.422;2023-07-29T05:01:49;100777.19;;;16.55;85.95
79617;BME280;69097;52.132;5.422;2023-07-29T05:04:20;100782.41;;;16.57;85.73
79617;BME280;69097;52.132;5.422;2023-07-29T05:06:46;100788.84;;;16.57;85.78
79617;BME280;69097;52.132;5.422;2023-07-29T05:09:17;100781.16;;;16.58;86.23
79617;BME280;69097;52.132;5.422;2023-07-29T05:11:44;100788.22;;;16.62;85.97
79617;BME280;69097;52.132;5.422;2023-07-29T05:14:13;100787.56;;;16.67;85.84
79617;BME280;69097;52.132;5.422;2023-07-29T05:16:39;100795.56;;;16.69;85.88
79617;BME280;69097;52.132;5.422;2023-07-29T05:19:07;100797.97;;;16.70;85.54
79617;BME280;69097;52.132;5.422;2023-07-29T05:21:34;100797.00;;;16.73;85.70
79617;BME280;69097;52.132;5.422;2023-07-29T05:24:01;100800.91;;;16.76;85.29
79617;BME280;69097;52.132;5.422;2023-07-29T05:26:27;100789.59;;;16.76;85.96
79617;BME280;69097;52.132;5.422;2023-07-29T05:28:54;100799.66;;;16.77;85.49
79617;BME280;69097;52.132;5.422;2023-07-29T05:31:21;100789.09;;;16.77;85.28
79617;BME280;69097;52.132;5.422;2023-07-29T05:33:47;100792.72;;;16.78;85.05
79617;BME280;69097;52.132;5.422;2023-07-29T05:36:14;100796.66;;;16.80;85.64
79617;BME280;69097;52.132;5.422;2023-07-29T05:38:41;100801.38;;;16.83;85.53
79617;BME280;69097;52.132;5.422;2023-07-29T05:41:09;100807.34;;;16.85;85.40
79617;BME280;69097;52.132;5.422;2023-07-29T05:43:36;100813.03;;;16.85;85.45
79617;BME280;69097;52.132;5.422;2023-07-29T05:46:03;100810.03;;;16.89;85.47
79617;BME280;69097;52.132;5.422;2023-07-29T05:48:29;100814.72;;;16.92;85.79
79617;BME280;69097;52.132;5.422;2023-07-29T05:50:56;100815.31;;;16.96;85.81
79617;BME280;69097;52.132;5.422;2023-07-29T05:53:22;100814.66;;;17.01;85.78
79617;BME280;69097;52.132;5.422;2023-07-29T05:55:49;100816.56;;;17.04;85.48
79617;BME280;69097;52.132;5.422;2023-07-29T05:58:16;100812.94;;;17.03;85.50
79617;BME280;69097;52.132;5.422;2023-07-29T06:00:42;100814.03;;;17.06;85.81
79617;BME280;69097;52.132;5.422;2023-07-29T06:03:09;100805.84;;;17.08;85.49
79617;BME280;69097;52.132;5.422;2023-07-29T06:05:35;100811.34;;;17.11;85.62
79617;BME280;69097;52.132;5.422;2023-07-29T06:08:02;100815.28;;;17.14;85.19
79617;BME280;69097;52.132;5.422;2023-07-29T06:10:28;100810.38;;;17.14;85.41
79617;BME280;69097;52.132;5.422;2023-07-29T06:12:55;100812.25;;;17.17;85.47
79617;BME280;69097;52.132;5.422;2023-07-29T06:15:21;100806.41;;;17.21;85.48
79617;BME280;69097;52.132;5.422;2023-07-29T06:17:49;100806.53;;;17.27;85.79
79617;BME280;69097;52.132;5.422;2023-07-29T06:20:16;100801.31;;;17.34;85.64
79617;BME280;69097;52.132;5.422;2023-07-29T06:22:42;100804.88;;;17.44;85.54
79617;BME280;69097;52.132;5.422;2023-07-29T06:25:09;100806.09;;;17.52;85.26
79617;BME280;69097;52.132;5.422;2023-07-29T06:27:36;100802.91;;;17.59;85.04
79617;BME280;69097;52.132;5.422;2023-07-29T06:30:02;100795.00;;;17.63;84.67
79617;BME280;69097;52.132;5.422;2023-07-29T06:32:29;100803.53;;;17.63;84.51
79617;BME280;69097;52.132;5.422;2023-07-29T06:34:55;100810.44;;;17.62;84.13
79617;BME280;69097;52.132;5.422;2023-07-29T06:37:22;100815.38;;;17.61;84.59
79617;BME280;69097;52.132;5.422;2023-07-29T06:39:48;100814.38;;;17.64;84.84
79617;BME280;69097;52.132;5.422;2023-07-29T06:42:15;100806.00;;;17.70;85.03
79617;BME280;69097;52.132;5.422;2023-07-29T06:44:41;100812.56;;;17.76;85.13
79617;BME280;69097;52.132;5.422;2023-07-29T06:47:08;100815.06;;;17.83;85.07
79617;BME280;69097;52.132;5.422;2023-07-29T06:49:35;100816.59;;;17.84;84.79
79617;BME280;69097;52.132;5.422;2023-07-29T06:52:01;100816.59;;;17.84;84.73
79617;BME280;69097;52.132;5.422;2023-07-29T06:54:27;100817.53;;;17.90;84.89
79617;BME280;69097;52.132;5.422;2023-07-29T06:56:55;100819.22;;;17.96;84.67
79617;BME280;69097;52.132;5.422;2023-07-29T06:59:22;100821.94;;;18.05;84.91
79617;BME280;69097;52.132;5.422;2023-07-29T07:01:50;100813.75;;;18.07;83.78
79617;BME280;69097;52.132;5.422;2023-07-29T07:04:17;100825.00;;;18.02;83.75
79617;BME280;69097;52.132;5.422;2023-07-29T07:06:43;100830.88;;;17.98;84.23
79617;BME280;69097;52.132;5.422;2023-07-29T07:09:10;100821.94;;;18.05;84.24
79617;BME280;69097;52.132;5.422;2023-07-29T07:11:36;100817.69;;;18.10;84.01
79617;BME280;69097;52.132;5.422;2023-07-29T07:14:02;100818.44;;;18.10;83.46
79617;BME280;69097;52.132;5.422;2023-07-29T07:16:29;100826.19;;;18.10;84.10
79617;BME280;69097;52.132;5.422;2023-07-29T07:18:56;100822.38;;;18.13;84.20
79617;BME280;69097;52.132;5.422;2023-07-29T07:21:23;100829.63;;;18.14;84.43
79617;BME280;69097;52.132;5.422;2023-07-29T07:23:50;100828.84;;;18.13;84.06
79617;BME280;69097;52.132;5.422;2023-07-29T07:26:16;100831.19;;;18.15;84.35
79617;BME280;69097;52.132;5.422;2023-07-29T07:28:43;100834.81;;;18.15;84.65
79617;BME280;69097;52.132;5.422;2023-07-29T07:31:09;100837.38;;;18.13;83.96
79617;BME280;69097;52.132;5.422;2023-07-29T07:33:36;100842.56;;;18.15;84.20
79617;BME280;69097;52.132;5.422;2023-07-29T07:36:03;100833.38;;;18.20;84.49
79617;BME280;69097;52.132;5.422;2023-07-29T07:38:29;100833.94;;;18.24;84.52
79617;BME280;69097;52.132;5.422;2023-07-29T07:40:56;100835.53;;;18.25;84.02
79617;BME280;69097;52.132;5.422;2023-07-29T07:43:23;100842.78;;;18.26;83.90
79617;BME280;69097;52.132;5.422;2023-07-29T07:45:51;100840.72;;;18.26;84.16
79617;BME280;69097;52.132;5.422;2023-07-29T07:48:18;100832.50;;;18.28;83.26
79617;BME280;69097;52.132;5.422;2023-07-29T07:50:46;100836.72;;;18.33;83.91
79617;BME280;69097;52.132;5.422;2023-07-29T07:53:12;100838.72;;;18.42;83.64
79617;BME280;69097;52.132;5.422;2023-07-29T07:55:39;100831.38;;;18.50;83.57
79617;BME280;69097;52.132;5.422;2023-07-29T07:58:06;100831.78;;;18.57;83.63
79617;BME280;69097;52.132;5.422;2023-07-29T08:00:32;100833.84;;;18.71;84.27
79617;BME280;69097;52.132;5.422;2023-07-29T08:02:59;100832.97;;;18.80;83.51
79617;BME280;69097;52.132;5.422;2023-07-29T08:05:25;100842.28;;;18.80;82.97
79617;BME280;69097;52.132;5.422;2023-07-29T08:07:52;100843.56;;;18.79;83.10
79617;BME280;69097;52.132;5.422;2023-07-29T08:10:18;100845.91;;;18.81;83.00
79617;BME280;69097;52.132;5.422;2023-07-29T08:12:45;100847.28;;;18.85;82.83
79617;BME280;69097;52.132;5.422;2023-07-29T08:15:11;100841.19;;;18.92;82.41
79617;BME280;69097;52.132;5.422;2023-07-29T08:17:38;100839.72;;;18.97;81.66
79617;BME280;69097;52.132;5.422;2023-07-29T08:20:05;100840.97;;;19.10;81.94
79617;BME280;69097;52.132;5.422;2023-07-29T08:22:31;100839.09;;;19.22;81.19
79617;BME280;69097;52.132;5.422;2023-07-29T08:24:58;100841.16;;;19.21;81.29
79617;BME280;69097;52.132;5.422;2023-07-29T08:27:24;100838.88;;;19.25;79.85
79617;BME280;69097;52.132;5.422;2023-07-29T08:29:51;100848.91;;;19.35;79.99
79617;BME280;69097;52.132;5.422;2023-07-29T08:32:17;100839.88;;;19.37;79.59
79617;BME280;69097;52.132;5.422;2023-07-29T08:34:44;100843.91;;;19.30;79.43
79617;BME280;69097;52.132;5.422;2023-07-29T08:37:10;100848.13;;;19.20;79.48
79617;BME280;69097;52.132;5.422;2023-07-29T08:39:37;100846.38;;;19.08;79.03
79617;BME280;69097;52.132;5.422;2023-07-29T08:42:06;100838.25;;;19.01;79.90
79617;BME280;69097;52.132;5.422;2023-07-29T08:44:44;100852.94;;;19.00;80.88
79617;BME280;69097;52.132;5.422;2023-07-29T08:47:12;100837.16;;;18.99;80.50
79617;BME280;69097;52.132;5.422;2023-07-29T08:49:44;100840.31;;;19.01;81.20
79617;BME280;69097;52.132;5.422;2023-07-29T08:52:12;100845.00;;;19.04;80.07
79617;BME280;69097;52.132;5.422;2023-07-29T08:54:41;100836.47;;;19.04;80.16
79617;BME280;69097;52.132;5.422;2023-07-29T08:57:08;100839.81;;;19.02;80.37
79617;BME280;69097;52.132;5.422;2023-07-29T08:59:35;100840.59;;;19.03;79.68
79617;BME280;69097;52.132;5.422;2023-07-29T09:02:01;100840.13;;;19.04;79.93
79617;BME280;69097;52.132;5.422;2023-07-29T09:04:28;100846.09;;;19.06;79.31
79617;BME280;69097;52.132;5.422;2023-07-29T09:06:55;100841.47;;;19.09;79.77
79617;BME280;69097;52.132;5.422;2023-07-29T09:09:22;100846.16;;;19.12;79.53
79617;BME280;69097;52.132;5.422;2023-07-29T09:11:49;100849.50;;;19.10;79.69
79617;BME280;69097;52.132;5.422;2023-07-29T09:14:15;100846.97;;;19.12;79.95
79617;BME280;69097;52.132;5.422;2023-07-29T09:16:42;100852.44;;;19.45;79.80
79617;BME280;69097;52.132;5.422;2023-07-29T09:19:08;100851.41;;;19.83;78.94
79617;BME280;69097;52.132;5.422;2023-07-29T09:21:38;100852.56;;;19.91;78.09
79617;BME280;69097;52.132;5.422;2023-07-29T09:24:05;100852.50;;;19.85;76.91
79617;BME280;69097;52.132;5.422;2023-07-29T09:26:34;100853.69;;;19.79;76.12
79617;BME280;69097;52.132;5.422;2023-07-29T09:29:02;100842.22;;;19.73;76.29
79617;BME280;69097;52.132;5.422;2023-07-29T09:31:29;100842.72;;;19.72;76.84
79617;BME280;69097;52.132;5.422;2023-07-29T09:34:01;100844.78;;;19.71;77.18
79617;BME280;69097;52.132;5.422;2023-07-29T09:36:31;100844.22;;;19.67;77.24
79617;BME280;69097;52.132;5.422;2023-07-29T09:38:58;100844.34;;;19.58;77.30
79617;BME280;69097;52.132;5.422;2023-07-29T09:41:29;100852.28;;;19.54;78.56
79617;BME280;69097;52.132;5.422;2023-07-29T09:44:03;100842.75;;;19.57;79.80
79617;BME280;69097;52.132;5.422;2023-07-29T09:46:37;100845.03;;;19.53;78.01
79617;BME280;69097;52.132;5.422;2023-07-29T09:49:06;100841.00;;;19.59;77.80
79617;BME280;69097;52.132;5.422;2023-07-29T09:51:44;100843.63;;;19.63;77.72
79617;BME280;69097;52.132;5.422;2023-07-29T09:54:11;100844.13;;;19.62;77.85
79617;BME280;69097;52.132;5.422;2023-07-29T09:56:41;100849.25;;;19.57;77.80
79617;BME280;69097;52.132;5.422;2023-07-29T09:59:09;100860.28;;;19.50;79.53
79617;BME280;69097;52.132;5.422;2023-07-29T10:01:36;100861.88;;;19.36;80.09
79617;BME280;69097;52.132;5.422;2023-07-29T10:04:04;100871.00;;;19.11;82.56
79617;BME280;69097;52.132;5.422;2023-07-29T10:06:33;100862.09;;;18.89;85.29
79617;BME280;69097;52.132;5.422;2023-07-29T10:09:01;100856.19;;;18.78;86.33
79617;BME280;69097;52.132;5.422;2023-07-29T10:11:28;100868.72;;;18.72;86.87
79617;BME280;69097;52.132;5.422;2023-07-29T10:13:56;100851.56;;;18.66;87.49
79617;BME280;69097;52.132;5.422;2023-07-29T10:16:35;100856.19;;;18.64;87.73
79617;BME280;69097;52.132;5.422;2023-07-29T10:19:04;100861.19;;;18.69;88.52
79617;BME280;69097;52.132;5.422;2023-07-29T10:21:31;100862.25;;;18.71;88.55
79617;BME280;69097;52.132;5.422;2023-07-29T10:24:01;100863.03;;;18.72;88.41
79617;BME280;69097;52.132;5.422;2023-07-29T10:26:31;100867.19;;;18.71;88.93
79617;BME280;69097;52.132;5.422;2023-07-29T10:29:04;100865.41;;;18.73;89.97
79617;BME280;69097;52.132;5.422;2023-07-29T10:31:32;100865.09;;;18.71;89.41
79617;BME280;69097;52.132;5.422;2023-07-29T10:34:14;100870.50;;;18.69;89.48
79617;BME280;69097;52.132;5.422;2023-07-29T10:36:42;100871.47;;;18.66;89.43
79617;BME280;69097;52.132;5.422;2023-07-29T10:39:09;100877.25;;;18.72;89.35
79617;BME280;69097;52.132;5.422;2023-07-29T10:47:27;100875.31;;;18.92;90.45
79617;BME280;69097;52.132;5.422;2023-07-29T10:50:22;100869.25;;;18.99;90.99
79617;BME280;69097;52.132;5.422;2023-07-29T10:52:52;100863.25;;;18.97;90.20
79617;BME280;69097;52.132;5.422;2023-07-29T10:55:30;100857.28;;;18.95;89.90
79617;BME280;69097;52.132;5.422;2023-07-29T10:58:10;100857.97;;;18.90;90.35
79617;BME280;69097;52.132;5.422;2023-07-29T11:00:38;100863.66;;;18.90;90.41
79617;BME280;69097;52.132;5.422;2023-07-29T11:03:06;100862.66;;;18.93;89.97
79617;BME280;69097;52.132;5.422;2023-07-29T11:05:47;100862.88;;;19.04;91.26
79617;BME280;69097;52.132;5.422;2023-07-29T11:08:28;100864.41;;;19.20;90.71
79617;BME280;69097;52.132;5.422;2023-07-29T11:11:06;100876.97;;;19.28;90.15
79617;BME280;69097;52.132;5.422;2023-07-29T11:13:35;100873.03;;;19.25;89.54
79617;BME280;69097;52.132;5.422;2023-07-29T11:16:02;100877.56;;;19.17;89.21
79617;BME280;69097;52.132;5.422;2023-07-29T11:18:34;100877.75;;;19.14;88.97
79617;BME280;69097;52.132;5.422;2023-07-29T11:21:03;100871.47;;;19.10;89.17
79617;BME280;69097;52.132;5.422;2023-07-29T11:23:34;100880.78;;;19.10;89.94
79617;BME280;69097;52.132;5.422;2023-07-29T11:26:02;100879.63;;;19.02;88.20
79617;BME280;69097;52.132;5.422;2023-07-29T11:28:29;100879.91;;;18.90;88.33
79617;BME280;69097;52.132;5.422;2023-07-29T11:30:57;100880.09;;;18.86;89.65
79617;BME280;69097;52.132;5.422;2023-07-29T11:33:25;100872.84;;;18.85;88.47
79617;BME280;69097;52.132;5.422;2023-07-29T11:35:52;100883.06;;;18.77;89.08
79617;BME280;69097;52.132;5.422;2023-07-29T11:38:20;100877.75;;;18.70;89.06
79617;BME280;69097;52.132;5.422;2023-07-29T11:40:58;100874.22;;;18.61;88.79
79617;BME280;69097;52.132;5.422;2023-07-29T11:43:29;100872.56;;;18.54;88.87
79617;BME280;69097;52.132;5.422;2023-07-29T11:46:00;100873.50;;;18.51;89.12
79617;BME280;69097;52.132;5.422;2023-07-29T11:48:31;100881.75;;;18.49;88.77
79617;BME280;69097;52.132;5.422;2023-07-29T11:50:58;100878.91;;;18.49;89.93
79617;BME280;69097;52.132;5.422;2023-07-29T11:53:29;100873.69;;;18.48;88.94
79617;BME280;69097;52.132;5.422;2023-07-29T11:55:59;100878.69;;;18.53;90.64
79617;BME280;69097;52.132;5.422;2023-07-29T11:58:26;100874.59;;;18.54;89.97
79617;BME280;69097;52.132;5.422;2023-07-29T12:00:54;100875.97;;;18.58;90.21
79617;BME280;69097;52.132;5.422;2023-07-29T12:03:21;100882.06;;;18.66;89.59
79617;BME280;69097;52.132;5.422;2023-07-29T12:05:48;100875.63;;;18.94;92.51
79617;BME280;69097;52.132;5.422;2023-07-29T12:08:15;100883.03;;;19.21;91.42
79617;BME280;69097;52.132;5.422;2023-07-29T12:10:42;100868.38;;;19.57;92.32
79617;BME280;69097;52.132;5.422;2023-07-29T12:13:09;100865.94;;;20.05;92.97
79617;BME280;69097;52.132;5.422;2023-07-29T12:15:38;100868.97;;;20.36;89.96
79617;BME280;69097;52.132;5.422;2023-07-29T12:18:04;100870.91;;;20.50;86.77
79617;BME280;69097;52.132;5.422;2023-07-29T12:20:31;100864.28;;;20.58;86.46
79617;BME280;69097;52.132;5.422;2023-07-29T12:22:59;100865.16;;;20.70;84.97
79617;BME280;69097;52.132;5.422;2023-07-29T12:25:29;100861.06;;;20.71;85.10
79617;BME280;69097;52.132;5.422;2023-07-29T12:28:07;100855.41;;;20.76;85.21
79617;BME280;69097;52.132;5.422;2023-07-29T12:30:34;100856.34;;;20.68;84.94
79617;BME280;69097;52.132;5.422;2023-07-29T12:33:01;100858.34;;;20.62;85.39
79617;BME280;69097;52.132;5.422;2023-07-29T12:35:35;100856.66;;;20.50;84.91
79617;BME280;69097;52.132;5.422;2023-07-29T12:38:02;100856.13;;;20.46;83.89
79617;BME280;69097;52.132;5.422;2023-07-29T12:40:28;100865.41;;;20.41;84.36
79617;BME280;69097;52.132;5.422;2023-07-29T12:42:56;100862.59;;;20.46;85.17
79617;BME280;69097;52.132;5.422;2023-07-29T12:45:23;100856.13;;;20.46;83.42
79617;BME280;69097;52.132;5.422;2023-07-29T12:47:52;100863.38;;;20.47;82.64
79617;BME280;69097;52.132;5.422;2023-07-29T12:50:20;100868.38;;;20.32;82.13
79617;BME280;69097;52.132;5.422;2023-07-29T12:52:47;100870.41;;;20.26;83.22
79617;BME280;69097;52.132;5.422;2023-07-29T12:55:13;100870.41;;;20.26;84.13
79617;BME280;69097;52.132;5.422;2023-07-29T12:57:43;100865.25;;;20.30;82.82
79617;BME280;69097;52.132;5.422;2023-07-29T13:00:10;100866.22;;;20.47;82.92
79617;BME280;69097;52.132;5.422;2023-07-29T13:02:37;100861.50;;;20.64;83.49
79617;BME280;69097;52.132;5.422;2023-07-29T13:05:04;100862.59;;;20.72;82.73
79617;BME280;69097;52.132;5.422;2023-07-29T13:07:31;100863.19;;;20.76;82.23